Archival Weather

NSFA McMurdo Sound

NSFA McMurdo Sound, Antarctica (NZCM)

Report from: Saturday, February 24, 2024 6:55 PM UTC
Current time: Wednesday, April 24, 2024 7:50 PM UTC

Current weather – Weather history – Daily summaries
Weather forecast

Temperature-12.1°C (10.2°F)
Wind chill-18.1°C (-0.7°F)
Dew point-28.6°C (-19.5°F)
Winds 6 kts (3.1 m/s, 6.9 mph) Vrb
Winds variableWinds variable
Visibility6.2 mi. (10 km)
Clouds Sky clear
Altimeter29.15 in.Hg (987 mB)
Relative humidity24 %
Density altitude-5,888 ft. (-1,795 m)
Sea-level pressure108.8 kPa (1088 mB, 32.12 in.Hg)
Remarks Fully automated report
Automated weather observing station with precipitation discriminator
Flight conditions Visual Meteorological Conditions
Raw dataNZCM 241855Z AUTO VRB06KT 9999 CLR M12/M29 A2915 RMK AO2 SLP877 T11211286
An error has occurred. This application may no longer respond until reloaded. Reload 🗙